Time;durP1;ratioP1;P1;durP2;ratioP2;P2;SDS_P1;SDS_P2;PMS_P1;PMS_P2;Temp;Humidity;BMP_temperature;BMP_pressure;BME280_temperature;BME280_humidity;BME280_pressure;Samples;Min_cycle;Max_cycle;Signal;HPM_P1;HPM_P2
2022/03/07 00:01:49;;;;;;;;;;;;;;;3.40;54.39;100660.53;1705327;83;20119;-84
2022/03/07 00:04:16;;;;;;;;;;;;;;;3.30;54.60;100652.94;1707745;83;20141;-83
2022/03/07 00:06:42;;;;;;;;;;;;;;;3.31;54.44;100650.23;1708783;82;20111;-84
2022/03/07 00:09:07;;;;;;;;;;;;;;;3.19;54.15;100647.91;1710847;82;20102;-81
2022/03/07 00:11:34;;;;;;;;;;;;;;;3.21;54.22;100648.64;1705133;82;21078;-85
2022/03/07 00:14:01;;;;;;;;;;;;;;;3.18;54.17;100641.00;1705475;83;20177;-81
2022/03/07 00:16:26;;;;;;;;;;;;;;;3.32;53.87;100647.14;1706623;83;20159;-81
2022/03/07 00:18:52;;;;;;;;;;;;;;;3.30;53.73;100643.80;1706684;81;20120;-84
2022/03/07 00:21:18;;;;;;;;;;;;;;;3.45;53.52;100645.44;1703599;83;20180;-86
2022/03/07 00:23:44;;;;;;;;;;;;;;;3.46;53.17;100639.26;1704014;82;21051;-82
2022/03/07 00:26:09;;;;;;;;;;;;;;;3.48;52.85;100641.77;1692441;82;20132;-84
2022/03/07 00:28:35;;;;;;;;;;;;;;;3.40;53.24;100637.04;1692792;81;20131;-82
2022/03/07 00:31:00;;;;;;;;;;;;;;;3.52;53.10;100643.27;1690597;84;20143;-82
2022/03/07 00:33:26;;;;;;;;;;;;;;;3.49;52.75;100641.67;1691996;83;20204;-82
2022/03/07 00:35:52;;;;;;;;;;;;;;;3.39;52.71;100635.38;1694887;83;21031;-83
2022/03/07 00:38:17;;;;;;;;;;;;;;;3.46;52.70;100648.39;1685570;83;20142;-86
2022/03/07 00:40:43;;;;;;;;;;;;;;;3.34;52.68;100645.26;1690758;84;20230;-83
2022/03/07 00:43:09;;;;;;;;;;;;;;;3.50;52.45;100644.66;1685178;84;20141;-83
2022/03/07 00:45:35;;;;;;;;;;;;;;;3.36;52.52;100653.85;1691605;83;20141;-83
2022/03/07 00:48:00;;;;;;;;;;;;;;;3.48;52.61;100655.69;1692663;83;21091;-84
2022/03/07 00:50:26;;;;;;;;;;;;;;;3.41;52.55;100651.78;1692071;84;20229;-83
2022/03/07 00:52:51;;;;;;;;;;;;;;;3.51;52.48;100650.72;1690124;84;20136;-83
2022/03/07 00:55:17;;;;;;;;;;;;;;;3.50;52.42;100643.36;1692755;84;20338;-83
2022/03/07 00:57:42;;;;;;;;;;;;;;;3.56;52.31;100648.19;1690079;84;20563;-86
2022/03/07 01:00:09;;;;;;;;;;;;;;;3.51;52.25;100633.30;1697414;84;21188;-83
2022/03/07 01:02:35;;;;;;;;;;;;;;;3.69;52.16;100636.95;1695868;84;20153;-84
2022/03/07 01:05:01;;;;;;;;;;;;;;;3.61;52.17;100637.92;1695152;83;20186;-84
2022/03/07 01:07:27;;;;;;;;;;;;;;;3.54;52.10;100621.34;1690398;84;20205;-83
2022/03/07 01:09:53;;;;;;;;;;;;;;;3.65;51.81;100618.04;1691678;84;20153;-84
2022/03/07 01:12:19;;;;;;;;;;;;;;;3.68;51.73;100618.29;1682558;84;21159;-88
2022/03/07 01:14:44;;;;;;;;;;;;;;;3.67;51.76;100617.94;1695015;83;20170;-84
2022/03/07 01:17:10;;;;;;;;;;;;;;;3.61;52.24;100613.12;1687142;84;20583;-88
2022/03/07 01:19:36;;;;;;;;;;;;;;;3.58;52.39;100617.58;1694987;84;20770;-86
2022/03/07 01:22:01;;;;;;;;;;;;;;;3.58;52.69;100614.14;1693167;83;20189;-84
2022/03/07 01:24:28;;;;;;;;;;;;;;;3.61;52.47;100611.81;1690973;82;21151;-86
2022/03/07 01:26:54;;;;;;;;;;;;;;;3.49;52.94;100612.95;1682997;84;20343;-85
2022/03/07 01:29:19;;;;;;;;;;;;;;;3.46;53.21;100615.77;1692447;84;20135;-87
2022/03/07 01:31:45;;;;;;;;;;;;;;;3.16;53.77;100616.78;1690714;84;20142;-83
2022/03/07 01:34:13;;;;;;;;;;;;;;;3.10;54.17;100613.73;1693869;83;20130;-83
2022/03/07 01:36:38;;;;;;;;;;;;;;;3.08;54.12;100609.06;1693819;84;21282;-82
2022/03/07 01:39:04;;;;;;;;;;;;;;;2.99;54.09;100604.80;1692333;84;20114;-85
2022/03/07 01:41:29;;;;;;;;;;;;;;;2.96;54.46;100613.30;1691469;81;20133;-83
2022/03/07 01:43:55;;;;;;;;;;;;;;;2.97;54.48;100604.55;1697474;84;20115;-83
2022/03/07 01:46:21;;;;;;;;;;;;;;;2.89;54.47;100590.67;1692547;81;20213;-82
2022/03/07 01:48:46;;;;;;;;;;;;;;;2.85;54.83;100584.79;1697522;84;21144;-82
2022/03/07 01:51:13;;;;;;;;;;;;;;;2.65;55.49;100582.59;1693445;84;20104;-85
2022/03/07 01:53:39;;;;;;;;;;;;;;;2.79;55.59;100578.66;1695613;81;20150;-84
2022/03/07 01:56:06;;;;;;;;;;;;;;;2.87;55.46;100575.56;1696580;83;20452;-83
2022/03/07 01:58:32;;;;;;;;;;;;;;;2.78;55.74;100575.69;1688142;83;20158;-85
2022/03/07 02:00:57;;;;;;;;;;;;;;;2.69;56.12;100571.05;1687197;84;22519;-83
2022/03/07 02:03:23;;;;;;;;;;;;;;;2.75;56.07;100574.58;1687065;84;20129;-83
2022/03/07 02:05:48;;;;;;;;;;;;;;;2.72;56.26;100578.68;1683487;84;20160;-85
2022/03/07 02:08:15;;;;;;;;;;;;;;;2.60;56.33;100576.83;1688482;84;20119;-86
2022/03/07 02:10:42;;;;;;;;;;;;;;;2.65;56.26;100574.77;1688735;84;20145;-87
2022/03/07 02:13:13;;;;;;;;;;;;;;;2.62;56.54;100576.26;1693078;83;21101;-87
2022/03/07 02:15:38;;;;;;;;;;;;;;;2.55;56.72;100572.34;1684772;84;20130;-85
2022/03/07 02:18:04;;;;;;;;;;;;;;;2.69;56.18;100578.87;1693511;84;20139;-82
2022/03/07 02:20:29;;;;;;;;;;;;;;;2.67;56.07;100578.11;1686400;84;20139;-85
2022/03/07 02:22:55;;;;;;;;;;;;;;;2.83;55.83;100578.84;1689404;84;20107;-85
2022/03/07 02:25:21;;;;;;;;;;;;;;;2.77;55.21;100587.05;1691138;83;21038;-86
2022/03/07 02:27:46;;;;;;;;;;;;;;;2.77;55.17;100579.70;1700516;83;20911;-84
2022/03/07 02:30:12;;;;;;;;;;;;;;;2.96;54.78;100572.86;1703905;83;20172;-85
2022/03/07 02:32:39;;;;;;;;;;;;;;;2.85;54.70;100576.14;1703876;84;20094;-83
2022/03/07 02:35:06;;;;;;;;;;;;;;;2.87;54.48;100567.30;1704891;83;20218;-84
2022/03/07 02:37:33;;;;;;;;;;;;;;;2.98;54.40;100569.23;1702674;83;21010;-86
2022/03/07 02:39:59;;;;;;;;;;;;;;;2.79;54.33;100572.61;1699825;83;20149;-85
2022/03/07 02:42:24;;;;;;;;;;;;;;;2.99;54.07;100580.49;1705152;84;20630;-82
2022/03/07 02:44:50;;;;;;;;;;;;;;;2.88;54.07;100564.21;1703836;83;20129;-82
2022/03/07 02:47:15;;;;;;;;;;;;;;;3.05;53.95;100561.84;1703772;83;20131;-83
2022/03/07 02:49:41;;;;;;;;;;;;;;;2.80;54.37;100570.38;1706249;84;21081;-86
2022/03/07 02:52:08;;;;;;;;;;;;;;;2.95;53.91;100564.65;1703967;83;20137;-83
2022/03/07 02:54:34;;;;;;;;;;;;;;;2.90;54.23;100557.59;1703665;84;20102;-83
2022/03/07 02:57:00;;;;;;;;;;;;;;;2.88;54.28;100558.52;1703481;83;20178;-85
2022/03/07 02:59:25;;;;;;;;;;;;;;;2.83;54.28;100559.76;1704505;84;20168;-82
2022/03/07 03:01:51;;;;;;;;;;;;;;;2.68;54.83;100556.33;1702707;82;22322;-85
2022/03/07 03:04:16;;;;;;;;;;;;;;;2.76;54.92;100550.63;1701763;84;20110;-85
2022/03/07 03:06:42;;;;;;;;;;;;;;;2.89;54.63;100548.94;1699931;84;20136;-86
2022/03/07 03:09:08;;;;;;;;;;;;;;;2.98;54.56;100556.19;1699728;82;20198;-86
2022/03/07 03:11:34;;;;;;;;;;;;;;;2.91;54.87;100551.45;1704449;82;20129;-86
2022/03/07 03:13:59;;;;;;;;;;;;;;;2.98;54.98;100548.80;1704169;83;21876;-85
2022/03/07 03:16:25;;;;;;;;;;;;;;;3.02;54.88;100546.38;1704939;84;20121;-84
2022/03/07 03:18:50;;;;;;;;;;;;;;;3.00;55.22;100553.48;1701845;84;20191;-86
2022/03/07 03:21:18;;;;;;;;;;;;;;;2.93;55.47;100548.27;1701303;84;20119;-85
2022/03/07 03:23:44;;;;;;;;;;;;;;;2.79;56.00;100546.53;1702589;84;20131;-88
2022/03/07 03:26:09;;;;;;;;;;;;;;;2.76;56.31;100556.67;1694434;82;21067;-86
2022/03/07 03:28:35;;;;;;;;;;;;;;;2.65;56.76;100561.73;1691345;83;20216;-85
2022/03/07 03:31:00;;;;;;;;;;;;;;;2.90;56.17;100558.42;1692339;84;20118;-86
2022/03/07 03:33:26;;;;;;;;;;;;;;;2.79;56.60;100555.66;1696280;84;20100;-83
2022/03/07 03:35:52;;;;;;;;;;;;;;;2.92;56.42;100553.11;1695540;83;20119;-85
2022/03/07 03:38:17;;;;;;;;;;;;;;;2.91;56.57;100552.28;1692384;84;21073;-84
2022/03/07 03:40:43;;;;;;;;;;;;;;;2.94;56.56;100556.00;1686962;83;20196;-83
2022/03/07 03:43:09;;;;;;;;;;;;;;;2.77;57.02;100549.23;1688824;84;20133;-84
2022/03/07 03:45:34;;;;;;;;;;;;;;;2.77;57.14;100544.02;1689541;84;20470;-85
2022/03/07 03:48:00;;;;;;;;;;;;;;;2.66;57.59;100547.77;1694017;84;20208;-83
2022/03/07 03:50:25;;;;;;;;;;;;;;;2.62;57.79;100550.19;1691493;84;21098;-87
2022/03/07 03:52:51;;;;;;;;;;;;;;;2.55;57.95;100558.86;1685316;84;20368;-86
2022/03/07 03:55:17;;;;;;;;;;;;;;;2.54;58.11;100549.83;1684000;84;20155;-84
2022/03/07 03:57:42;;;;;;;;;;;;;;;2.59;58.07;100543.86;1681841;84;20138;-87
2022/03/07 04:00:10;;;;;;;;;;;;;;;2.43;58.71;100547.88;1683825;84;20173;-88
2022/03/07 04:02:36;;;;;;;;;;;;;;;2.46;58.84;100545.91;1683441;84;21079;-88
2022/03/07 04:05:02;;;;;;;;;;;;;;;2.49;58.64;100537.91;1683947;84;20171;-85
2022/03/07 04:07:28;;;;;;;;;;;;;;;2.34;59.19;100540.14;1682406;83;20134;-85
2022/03/07 04:09:54;;;;;;;;;;;;;;;2.33;59.38;100541.06;1685162;84;20660;-88
2022/03/07 04:12:19;;;;;;;;;;;;;;;2.24;59.75;100532.53;1686931;84;20183;-87
2022/03/07 04:14:45;;;;;;;;;;;;;;;2.39;59.48;100534.18;1692118;84;21169;-85
2022/03/07 04:17:10;;;;;;;;;;;;;;;2.38;59.58;100530.36;1688593;83;20127;-85
2022/03/07 04:19:36;;;;;;;;;;;;;;;2.46;59.48;100528.97;1680093;84;20455;-88
2022/03/07 04:22:02;;;;;;;;;;;;;;;2.10;60.52;100544.62;1682012;84;20740;-85
2022/03/07 04:24:30;;;;;;;;;;;;;;;2.36;60.19;100532.23;1680292;84;20202;-88
2022/03/07 04:26:55;;;;;;;;;;;;;;;2.43;59.98;100536.15;1697994;83;20271;-85
2022/03/07 04:29:20;;;;;;;;;;;;;;;2.37;60.48;100539.96;1699861;84;20316;-88
2022/03/07 04:31:46;;;;;;;;;;;;;;;2.53;60.00;100540.33;1699020;82;20139;-84
2022/03/07 04:34:14;;;;;;;;;;;;;;;2.43;60.31;100534.38;1702295;82;20791;-86
2022/03/07 04:36:40;;;;;;;;;;;;;;;2.34;60.79;100527.12;1703434;83;20131;-87
2022/03/07 04:39:07;;;;;;;;;;;;;;;2.40;60.85;100528.52;1700999;84;21960;-87
2022/03/07 04:41:33;;;;;;;;;;;;;;;2.46;61.04;100531.58;1703143;82;20190;-82
2022/03/07 04:43:58;;;;;;;;;;;;;;;2.64;60.43;100528.75;1701443;83;20592;-82
2022/03/07 04:46:24;;;;;;;;;;;;;;;2.59;60.51;100534.73;1701569;84;20267;-86
2022/03/07 04:48:49;;;;;;;;;;;;;;;2.43;61.17;100538.76;1702624;84;20457;-87
2022/03/07 04:51:15;;;;;;;;;;;;;;;2.40;61.48;100533.73;1701324;83;21904;-89
2022/03/07 04:53:40;;;;;;;;;;;;;;;2.40;61.52;100537.17;1700971;84;20161;-86
2022/03/07 04:56:06;;;;;;;;;;;;;;;2.37;61.75;100543.88;1701816;83;20579;-87
2022/03/07 04:58:32;;;;;;;;;;;;;;;2.34;61.94;100541.45;1703644;84;20133;-85
2022/03/07 05:00:57;;;;;;;;;;;;;;;2.44;61.94;100542.58;1701241;84;20123;-85
2022/03/07 05:03:23;;;;;;;;;;;;;;;2.62;61.60;100538.45;1696676;83;21023;-87
2022/03/07 05:05:49;;;;;;;;;;;;;;;2.50;62.02;100535.69;1695086;83;20176;-86
2022/03/07 05:08:15;;;;;;;;;;;;;;;2.47;62.14;100535.01;1699931;84;20178;-83
2022/03/07 05:10:41;;;;;;;;;;;;;;;2.40;62.66;100535.04;1699402;83;20185;-88
2022/03/07 05:13:06;;;;;;;;;;;;;;;2.34;62.92;100533.62;1699290;82;20217;-86
2022/03/07 05:15:32;;;;;;;;;;;;;;;2.41;62.69;100524.52;1697866;84;21090;-87
2022/03/07 05:17:58;;;;;;;;;;;;;;;2.44;62.77;100530.84;1695768;84;20163;-85
2022/03/07 05:20:24;;;;;;;;;;;;;;;2.35;63.16;100526.20;1699991;83;20224;-83
2022/03/07 05:22:49;;;;;;;;;;;;;;;2.31;63.56;100526.83;1700918;82;20549;-84
2022/03/07 05:25:16;;;;;;;;;;;;;;;2.28;63.58;100525.71;1697543;83;20566;-86
2022/03/07 05:27:41;;;;;;;;;;;;;;;2.18;64.21;100522.48;1684637;83;21039;-85
2022/03/07 05:30:08;;;;;;;;;;;;;;;2.18;64.45;100514.20;1685829;84;20147;-84
2022/03/07 05:32:34;;;;;;;;;;;;;;;2.11;64.72;100511.13;1685187;83;20249;-84
2022/03/07 05:34:59;;;;;;;;;;;;;;;2.06;65.13;100511.85;1683014;84;20113;-87
2022/03/07 05:37:25;;;;;;;;;;;;;;;2.06;65.27;100510.55;1690973;84;20769;-85
2022/03/07 05:39:51;;;;;;;;;;;;;;;1.89;66.08;100514.64;1682990;84;21112;-87
2022/03/07 05:42:16;;;;;;;;;;;;;;;1.74;66.71;100519.84;1686147;84;20122;-90
2022/03/07 05:44:42;;;;;;;;;;;;;;;1.83;66.74;100513.70;1686153;84;20676;-87
2022/03/07 05:47:07;;;;;;;;;;;;;;;1.80;66.78;100518.61;1693013;84;20240;-83
2022/03/07 05:49:33;;;;;;;;;;;;;;;1.92;66.77;100523.57;1684418;84;20124;-87
2022/03/07 05:51:59;;;;;;;;;;;;;;;1.84;67.17;100531.02;1680072;84;21174;-85
2022/03/07 05:54:24;;;;;;;;;;;;;;;1.81;67.32;100523.38;1683488;84;20135;-86
2022/03/07 05:56:50;;;;;;;;;;;;;;;1.67;67.80;100527.62;1694047;84;20512;-87
2022/03/07 05:59:15;;;;;;;;;;;;;;;1.65;68.27;100525.58;1694673;84;20754;-87
2022/03/07 06:01:41;;;;;;;;;;;;;;;1.69;68.31;100521.84;1686848;84;20121;-86
2022/03/07 06:04:06;;;;;;;;;;;;;;;1.64;68.57;100521.29;1683859;84;21149;-91
2022/03/07 06:06:32;;;;;;;;;;;;;;;1.74;68.35;100527.64;1690489;84;20163;-90
2022/03/07 06:08:57;;;;;;;;;;;;;;;1.66;68.82;100520.73;1679250;84;20154;-92
2022/03/07 06:11:23;;;;;;;;;;;;;;;1.81;68.62;100524.20;1683659;83;20129;-87
2022/03/07 06:13:49;;;;;;;;;;;;;;;1.64;69.29;100530.40;1690015;84;21143;-91
2022/03/07 06:16:16;;;;;;;;;;;;;;;1.84;68.79;100521.42;1694317;83;21723;-91
2022/03/07 06:18:41;;;;;;;;;;;;;;;1.75;69.16;100522.79;1694630;84;20161;-87
2022/03/07 06:21:08;;;;;;;;;;;;;;;1.77;69.33;100526.16;1691658;83;20894;-89
2022/03/07 06:23:33;;;;;;;;;;;;;;;1.92;69.02;100523.57;1689995;83;20155;-92
2022/03/07 06:25:59;;;;;;;;;;;;;;;1.94;69.08;100515.19;1688576;82;20159;-94
2022/03/07 06:28:24;;;;;;;;;;;;;;;1.97;69.35;100518.91;1703668;82;21180;-93
2022/03/07 06:30:50;;;;;;;;;;;;;;;1.98;69.30;100526.64;1701087;84;20934;-85
2022/03/07 06:33:16;;;;;;;;;;;;;;;1.97;69.81;100530.64;1704026;82;20133;-89
2022/03/07 06:35:41;;;;;;;;;;;;;;;2.19;69.24;100518.92;1702563;82;20806;-86
2022/03/07 06:38:07;;;;;;;;;;;;;;;2.13;69.53;100514.95;1700743;82;20271;-92
2022/03/07 06:40:33;;;;;;;;;;;;;;;2.18;69.39;100517.27;1701748;84;20987;-80
2022/03/07 06:43:00;;;;;;;;;;;;;;;2.33;69.34;100522.83;1702940;84;20198;-85
2022/03/07 06:45:26;;;;;;;;;;;;;;;2.51;68.80;100525.61;1702290;83;20155;-84
2022/03/07 06:47:51;;;;;;;;;;;;;;;2.44;69.03;100520.42;1700764;82;20782;-86
2022/03/07 06:50:18;;;;;;;;;;;;;;;2.56;68.66;100524.02;1702139;83;20145;-83
2022/03/07 06:52:43;;;;;;;;;;;;;;;2.76;68.20;100524.08;1702503;82;21160;-85
2022/03/07 06:55:09;;;;;;;;;;;;;;;2.65;68.59;100522.62;1704344;83;20193;-85
2022/03/07 06:57:35;;;;;;;;;;;;;;;2.79;68.20;100530.41;1704977;82;20299;-85
2022/03/07 07:00:00;;;;;;;;;;;;;;;2.85;67.98;100529.19;1703173;84;20185;-84
2022/03/07 07:02:26;;;;;;;;;;;;;;;2.90;67.83;100529.72;1698802;83;20728;-85
2022/03/07 07:04:51;;;;;;;;;;;;;;;2.79;68.30;100537.40;1708284;82;21126;-84
2022/03/07 07:07:17;;;;;;;;;;;;;;;2.98;67.85;100539.23;1705054;82;20097;-85
2022/03/07 07:09:43;;;;;;;;;;;;;;;3.09;67.42;100548.95;1702733;83;20304;-84
2022/03/07 07:12:09;;;;;;;;;;;;;;;3.02;67.28;100554.20;1703741;84;20629;-85
2022/03/07 07:14:34;;;;;;;;;;;;;;;3.00;67.34;100541.73;1700304;84;20199;-85
2022/03/07 07:17:00;;;;;;;;;;;;;;;2.97;67.39;100549.28;1702559;82;21083;-85
2022/03/07 07:19:26;;;;;;;;;;;;;;;3.24;66.82;100541.44;1702536;84;20388;-87
2022/03/07 07:21:53;;;;;;;;;;;;;;;3.18;67.13;100539.70;1703257;83;20300;-86
2022/03/07 07:24:19;;;;;;;;;;;;;;;3.31;66.59;100544.96;1700767;83;20141;-89
2022/03/07 07:26:46;;;;;;;;;;;;;;;3.33;66.46;100547.02;1703652;83;20458;-85
2022/03/07 07:29:11;;;;;;;;;;;;;;;3.01;67.04;100544.70;1705209;83;21234;-85
2022/03/07 07:31:37;;;;;;;;;;;;;;;3.26;66.50;100541.82;1703625;82;20742;-84
2022/03/07 07:34:02;;;;;;;;;;;;;;;3.36;66.34;100543.73;1701913;82;20161;-86
2022/03/07 07:36:28;;;;;;;;;;;;;;;3.39;66.04;100546.63;1703997;82;20645;-85
2022/03/07 07:38:53;;;;;;;;;;;;;;;3.41;65.84;100543.44;1704358;82;20183;-87
2022/03/07 07:41:19;;;;;;;;;;;;;;;3.63;65.48;100538.11;1701244;82;21159;-85
2022/03/07 07:43:45;;;;;;;;;;;;;;;3.67;65.19;100540.89;1700911;81;20269;-86
2022/03/07 07:46:10;;;;;;;;;;;;;;;3.70;65.12;100537.59;1697775;83;20213;-85
2022/03/07 07:48:36;;;;;;;;;;;;;;;3.63;65.32;100540.72;1702472;84;21282;-85
2022/03/07 07:51:02;;;;;;;;;;;;;;;3.85;64.69;100539.64;1707553;82;20198;-84
2022/03/07 07:53:28;;;;;;;;;;;;;;;3.81;64.04;100536.88;1705446;82;21141;-84
2022/03/07 07:55:53;;;;;;;;;;;;;;;3.70;63.75;100544.61;1698306;83;20278;-84
2022/03/07 07:58:19;;;;;;;;;;;;;;;3.54;64.12;100543.02;1702884;82;20130;-85
2022/03/07 08:00:45;;;;;;;;;;;;;;;3.68;63.75;100547.32;1702234;83;20762;-85
2022/03/07 08:03:10;;;;;;;;;;;;;;;3.58;64.04;100535.80;1702296;83;20173;-84
2022/03/07 08:05:36;;;;;;;;;;;;;;;3.71;63.80;100533.20;1704897;82;21249;-86
2022/03/07 08:08:02;;;;;;;;;;;;;;;3.77;63.68;100530.18;1700323;84;20260;-86
2022/03/07 08:10:27;;;;;;;;;;;;;;;3.65;64.26;100533.61;1703797;83;20138;-86
2022/03/07 08:12:53;;;;;;;;;;;;;;;3.45;65.09;100543.61;1698495;84;20514;-86
2022/03/07 08:15:20;;;;;;;;;;;;;;;3.80;64.13;100529.15;1698932;83;20157;-85
2022/03/07 08:17:49;;;;;;;;;;;;;;;3.87;63.87;100536.47;1705479;82;21051;-89
2022/03/07 08:20:16;;;;;;;;;;;;;;;3.88;63.58;100539.43;1698092;83;20138;-85
2022/03/07 08:22:42;;;;;;;;;;;;;;;3.64;64.21;100533.27;1706869;82;20141;-85
2022/03/07 08:25:08;;;;;;;;;;;;;;;3.52;64.82;100533.59;1706588;82;20783;-87
2022/03/07 08:27:34;;;;;;;;;;;;;;;3.92;64.01;100521.31;1701571;83;20167;-91
2022/03/07 08:30:01;;;;;;;;;;;;;;;3.53;64.97;100525.66;1700666;84;21195;-84
2022/03/07 08:32:26;;;;;;;;;;;;;;;3.48;64.10;100531.66;1703895;83;20282;-83
2022/03/07 08:34:52;;;;;;;;;;;;;;;3.48;64.08;100539.50;1705486;82;20144;-84
2022/03/07 08:37:18;;;;;;;;;;;;;;;3.75;63.79;100529.45;1701494;83;20233;-84
2022/03/07 08:39:43;;;;;;;;;;;;;;;3.70;63.92;100538.91;1697672;83;20490;-84
2022/03/07 08:42:09;;;;;;;;;;;;;;;3.59;64.44;100545.31;1702105;84;22678;-86
2022/03/07 08:44:34;;;;;;;;;;;;;;;3.85;64.02;100530.49;1701267;83;20210;-85
2022/03/07 08:47:00;;;;;;;;;;;;;;;3.91;63.73;100541.84;1701752;83;20165;-85
2022/03/07 08:49:26;;;;;;;;;;;;;;;3.90;63.54;100544.11;1702383;84;20138;-83
2022/03/07 08:51:51;;;;;;;;;;;;;;;3.73;63.99;100529.56;1699530;84;20487;-84
2022/03/07 08:54:17;;;;;;;;;;;;;;;3.92;64.23;100537.47;1699705;83;21127;-84
2022/03/07 08:56:44;;;;;;;;;;;;;;;4.28;63.35;100524.95;1699787;84;20192;-86
2022/03/07 08:59:09;;;;;;;;;;;;;;;4.11;64.22;100525.28;1703536;83;20598;-86
2022/03/07 09:01:36;;;;;;;;;;;;;;;3.90;65.33;100531.04;1701700;83;20128;-85
2022/03/07 09:04:02;;;;;;;;;;;;;;;4.11;64.93;100521.36;1698052;83;20103;-84
2022/03/07 09:06:28;;;;;;;;;;;;;;;4.23;64.63;100516.60;1702955;83;21070;-85
2022/03/07 09:08:53;;;;;;;;;;;;;;;4.33;64.14;100523.80;1704498;84;20124;-83
2022/03/07 09:11:19;;;;;;;;;;;;;;;4.06;65.05;100540.45;1701111;84;20553;-82
2022/03/07 09:13:44;;;;;;;;;;;;;;;4.03;65.11;100530.20;1704531;83;20143;-84
2022/03/07 09:16:10;;;;;;;;;;;;;;;4.16;65.16;100523.18;1699752;83;20157;-83
2022/03/07 09:18:36;;;;;;;;;;;;;;;4.03;65.26;100517.14;1701376;82;21076;-85
2022/03/07 09:21:02;;;;;;;;;;;;;;;4.25;64.66;100513.40;1704636;83;20802;-84
2022/03/07 09:23:33;;;;;;;;;;;;;;;4.52;64.10;100520.25;1700327;84;20892;-83
2022/03/07 09:25:56;;;;;;;;;;;;;;;4.52;64.12;100515.02;1702626;82;20189;-84
2022/03/07 09:28:21;;;;;;;;;;;;;;;4.58;63.98;100521.61;1688785;84;20468;-84
2022/03/07 09:30:47;;;;;;;;;;;;;;;4.53;64.06;100511.47;1689583;84;21028;-84
2022/03/07 09:33:13;;;;;;;;;;;;;;;4.78;63.22;100513.66;1690983;83;20124;-83
2022/03/07 09:35:38;;;;;;;;;;;;;;;4.77;63.25;100513.28;1680870;83;20153;-83
2022/03/07 09:38:04;;;;;;;;;;;;;;;4.85;63.34;100509.67;1693069;84;20168;-82
2022/03/07 09:40:29;;;;;;;;;;;;;;;4.83;63.66;100511.09;1681005;84;21344;-83
2022/03/07 09:42:55;;;;;;;;;;;;;;;4.79;63.53;100507.48;1691705;84;21910;-83
2022/03/07 09:45:21;;;;;;;;;;;;;;;4.92;63.17;100504.33;1690667;83;20116;-84
2022/03/07 09:47:48;;;;;;;;;;;;;;;4.85;63.41;100501.81;1690084;84;20219;-84
2022/03/07 09:50:13;;;;;;;;;;;;;;;4.91;63.22;100506.61;1689682;84;20179;-83
2022/03/07 09:52:39;;;;;;;;;;;;;;;4.94;62.87;100494.61;1687357;84;20450;-83
2022/03/07 09:55:07;;;;;;;;;;;;;;;5.09;62.70;100497.05;1670050;84;21150;-83
2022/03/07 09:57:33;;;;;;;;;;;;;;;5.09;62.49;100499.67;1682861;84;20276;-83
2022/03/07 09:59:58;;;;;;;;;;;;;;;5.09;62.39;100501.80;1679676;84;20142;-83
2022/03/07 10:02:25;;;;;;;;;;;;;;;5.03;62.33;100492.63;1693008;83;20452;-84
2022/03/07 10:04:51;;;;;;;;;;;;;;;5.18;61.89;100491.14;1681938;84;20173;-84
2022/03/07 10:07:17;;;;;;;;;;;;;;;5.28;61.50;100488.67;1693627;83;21160;-84
2022/03/07 10:09:43;;;;;;;;;;;;;;;5.36;61.84;100498.95;1693819;83;20190;-84
2022/03/07 10:12:09;;;;;;;;;;;;;;;5.43;61.42;100495.39;1686769;84;20309;-84
2022/03/07 10:14:44;;;;;;;;;;;;;;;5.22;62.22;100496.52;1684944;84;20269;-84
2022/03/07 10:17:20;;;;;;;;;;;;;;;5.13;62.59;100493.27;1687633;84;20207;-84
2022/03/07 10:19:46;;;;;;;;;;;;;;;5.47;61.96;100487.67;1681362;84;21948;-84
2022/03/07 10:22:19;;;;;;;;;;;;;;;5.42;61.22;100492.40;1685858;83;20846;-85
2022/03/07 10:24:44;;;;;;;;;;;;;;;5.50;60.71;100490.06;1690038;84;20163;-82
2022/03/07 10:27:10;;;;;;;;;;;;;;;5.46;60.76;100493.85;1688237;84;20152;-83
2022/03/07 10:29:48;;;;;;;;;;;;;;;5.61;60.68;100489.26;1705330;82;20705;-83
2022/03/07 10:32:17;;;;;;;;;;;;;;;5.16;61.74;100510.06;1704105;84;21940;-82
2022/03/07 10:34:43;;;;;;;;;;;;;;;5.07;62.22;100492.41;1704470;82;20162;-84
2022/03/07 10:37:08;;;;;;;;;;;;;;;4.91;62.75;100493.52;1703208;82;20193;-84
2022/03/07 10:39:34;;;;;;;;;;;;;;;4.97;62.70;100502.24;1702591;82;20136;-83
2022/03/07 10:42:00;;;;;;;;;;;;;;;5.22;62.19;100492.59;1704042;82;20183;-83
2022/03/07 10:44:30;;;;;;;;;;;;;;;5.14;62.27;100507.56;1703624;83;21149;-84
2022/03/07 10:47:11;;;;;;;;;;;;;;;5.26;62.12;100497.95;1702683;84;20179;-83
2022/03/07 10:49:51;;;;;;;;;;;;;;;5.03;62.96;100487.85;1701183;84;20253;-83
2022/03/07 10:52:17;;;;;;;;;;;;;;;5.20;62.72;100474.84;1702548;83;21051;-83
2022/03/07 10:54:43;;;;;;;;;;;;;;;5.04;63.28;100473.34;1701920;84;20177;-84
2022/03/07 10:57:09;;;;;;;;;;;;;;;5.17;63.01;100489.46;1700540;84;40255;-83
2022/03/07 10:59:35;;;;;;;;;;;;;;;4.93;63.51;100489.48;1702577;83;20185;-82
2022/03/07 11:02:04;;;;;;;;;;;;;;;5.17;62.71;100477.68;1702203;84;20206;-84
2022/03/07 11:04:30;;;;;;;;;;;;;;;5.18;62.98;100472.33;1703233;83;20205;-83
2022/03/07 11:06:56;;;;;;;;;;;;;;;5.27;62.78;100483.92;1699699;83;20186;-86
2022/03/07 11:09:21;;;;;;;;;;;;;;;5.60;61.86;100469.23;1700271;83;21811;-84
2022/03/07 11:11:47;;;;;;;;;;;;;;;5.78;61.46;100454.37;1701412;83;20138;-83
2022/03/07 11:14:13;;;;;;;;;;;;;;;5.72;61.40;100459.14;1702339;83;20145;-83
2022/03/07 11:16:38;;;;;;;;;;;;;;;6.01;60.76;100456.11;1702794;82;20195;-83
2022/03/07 11:19:04;;;;;;;;;;;;;;;6.10;59.57;100475.52;1704714;83;20948;-84
2022/03/07 11:21:30;;;;;;;;;;;;;;;6.08;59.59;100446.80;1702656;83;21910;-83
2022/03/07 11:23:56;;;;;;;;;;;;;;;6.11;59.41;100443.93;1700364;83;20130;-85
2022/03/07 11:26:23;;;;;;;;;;;;;;;6.46;58.71;100445.58;1702664;83;20186;-84
2022/03/07 11:28:51;;;;;;;;;;;;;;;6.20;58.67;100445.47;1700797;84;20200;-84
2022/03/07 11:31:21;;;;;;;;;;;;;;;5.99;59.09;100440.95;1691997;82;20315;-82
2022/03/07 11:33:51;;;;;;;;;;;;;;;6.25;58.16;100441.54;1697999;82;21337;-90
2022/03/07 11:36:18;;;;;;;;;;;;;;;6.43;57.41;100452.38;1696045;82;21200;-89
2022/03/07 11:38:57;;;;;;;;;;;;;;;6.09;57.95;100451.09;1697984;82;20207;-87
2022/03/07 11:41:32;;;;;;;;;;;;;;;6.04;58.47;100450.59;1693400;83;20193;-88
2022/03/07 11:44:00;;;;;;;;;;;;;;;6.13;58.70;100439.05;1694936;82;20213;-88
2022/03/07 11:46:34;;;;;;;;;;;;;;;6.33;58.02;100444.87;1698224;82;21085;-87
2022/03/07 11:49:00;;;;;;;;;;;;;;;6.39;58.33;100437.83;1699586;82;20181;-88
2022/03/07 11:51:27;;;;;;;;;;;;;;;6.34;58.49;100460.12;1697456;83;20125;-90
2022/03/07 11:53:54;;;;;;;;;;;;;;;6.28;58.90;100435.23;1697603;84;20238;-88
2022/03/07 11:56:28;;;;;;;;;;;;;;;6.49;58.59;100459.39;1696777;82;20225;-88
2022/03/07 11:58:55;;;;;;;;;;;;;;;6.23;58.97;100432.11;1700200;82;21045;-88
2022/03/07 12:01:22;;;;;;;;;;;;;;;6.18;59.07;100436.89;1699443;82;20188;-87
2022/03/07 12:03:48;;;;;;;;;;;;;;;6.42;58.83;100444.14;1696153;84;20180;-87
2022/03/07 12:06:15;;;;;;;;;;;;;;;6.45;58.71;100434.71;1698764;84;21133;-89
2022/03/07 12:08:49;;;;;;;;;;;;;;;6.83;58.27;100426.84;1699793;83;20649;-88
2022/03/07 12:11:32;;;;;;;;;;;;;;;6.61;58.51;100422.98;1693734;83;21160;-88
2022/03/07 12:14:02;;;;;;;;;;;;;;;6.35;59.01;100419.34;1697032;82;20208;-86
2022/03/07 12:16:33;;;;;;;;;;;;;;;6.54;58.99;100421.80;1695708;83;20152;-86
2022/03/07 12:19:10;;;;;;;;;;;;;;;6.21;59.89;100420.92;1693645;82;20189;-85
2022/03/07 12:21:36;;;;;;;;;;;;;;;6.52;59.08;100425.86;1695181;82;20216;-90
2022/03/07 12:24:04;;;;;;;;;;;;;;;6.75;58.50;100421.38;1696120;83;21318;-89
2022/03/07 12:26:30;;;;;;;;;;;;;;;6.86;58.24;100413.13;1680054;84;20153;-89
2022/03/07 12:28:56;;;;;;;;;;;;;;;6.60;58.19;100416.92;1694789;82;20196;-87
2022/03/07 12:31:21;;;;;;;;;;;;;;;6.68;58.17;100424.17;1700182;82;20142;-87
2022/03/07 12:33:47;;;;;;;;;;;;;;;7.10;57.40;100420.30;1694329;82;20821;-84
2022/03/07 12:36:14;;;;;;;;;;;;;;;7.12;57.31;100413.12;1697380;84;22482;-85
2022/03/07 12:38:49;;;;;;;;;;;;;;;7.31;55.89;100415.53;1693891;83;20181;-87
2022/03/07 12:41:15;;;;;;;;;;;;;;;7.59;55.00;100412.71;1694215;84;20205;-87
2022/03/07 12:43:43;;;;;;;;;;;;;;;7.61;54.17;100411.27;1696351;83;20174;-88